Plato — 8PRX — position and weather

sailwx.info

Track history (hours):
 
Tides and Currents Weather Stations Pressure Air Temp Water Temp Dewpoint Dewpoint Depression Visibility Wind Speed Wind Dir Waves Ship Positions

Plato

Last reported at 2014-Nov-26 22:31 UTC. Time now 2014-Nov-27 04:26 UTC.
Position N 50°28' W 002°55'.

Length 88 m; draft 3.4 m.

Type: Ship. MMSI: 314189000.

Date/timePositionNaut miles runAvg speedWind from/ knotsBaromVisibWave heightAir tempDewpointWater temp
2014-Nov-26 22:31N 50°28' W 002°55'1111.2
2014-Nov-26 21:33N 50°30' W 003°12'1110.5
2014-Nov-26 20:33N 50°32' W 003°28'1 0.1
2014-Nov-25 20:31N 50°33' W 003°30'2 1.7
2014-Nov-25 19:33N 50°32' W 003°28'0 0.0
2014-Nov-25 18:33N 50°32' W 003°28'2 1.7
2014-Nov-25 17:33N 50°31' W 003°26'10 9.8
2014-Nov-25 16:33N 50°30' W 003°10'9 8.7
2014-Nov-25 15:33N 50°29' W 002°57'28 9.2
2014-Nov-25 12:31N 50°26' W 002°13'96 9.4
2014-Nov-25 02:16N 50°35' E 000°17'811.2
2014-Nov-25 01:33N 50°37' E 000°29'1010.2
2014-Nov-25 00:33N 50°42' E 000°42'10 9.9
2014-Nov-24 23:33N 50°48' E 000°55'2210.8
2014-Nov-24 21:34N 51°02' E 001°22'1414.1
2014-Nov-24 20:34N 51°10' E 001°39'1313.0
2014-Nov-24 19:34N 51°21' E 001°52'1211.7
2014-Nov-24 18:32N 51°30' E 002°04'95 9.3
2014-Nov-24 08:17N 52°31' E 004°03'6 7.7
2014-Nov-24 07:31N 52°31' E 004°12'7 7.6
2014-Nov-24 06:33N 52°29' E 004°24'7 7.2
2014-Nov-24 05:33N 52°28' E 004°36'6 5.5
2014-Nov-24 04:34N 52°26' E 004°44'2 1.9
2014-Nov-24 03:33N 52°25' E 004°46'0 0.0
2014-Nov-24 02:32N 52°25' E 004°46'0 0.0
2014-Nov-24 01:32N 52°25' E 004°46'0 0.0
2014-Nov-24 00:31N 52°25' E 004°46'0 0.0
2014-Nov-23 23:33N 52°25' E 004°46'0 0.0
2014-Nov-23 22:33N 52°25' E 004°46'0 0.0
2014-Nov-23 21:32N 52°25' E 004°46'0 0.0
2014-Nov-23 20:31N 52°25' E 004°46'0 0.0
2014-Nov-23 19:31N 52°25' E 004°46'0 0.0
2014-Nov-23 18:33N 52°25' E 004°46'0 0.0
2014-Nov-23 17:33N 52°25' E 004°46'0 0.0
2014-Nov-23 16:32N 52°25' E 004°46'0 0.0
2014-Nov-23 15:31N 52°25' E 004°46'0 0.0
2014-Nov-23 14:31N 52°25' E 004°46'0 0.0
2014-Nov-23 13:33N 52°25' E 004°46'0 0.0
2014-Nov-23 12:32N 52°25' E 004°46'0 0.0
2014-Nov-23 11:32N 52°25' E 004°46'0 0.0
2014-Nov-23 10:31N 52°25' E 004°46'0 0.0
2014-Nov-23 09:33N 52°25' E 004°46'0 0.0
2014-Nov-23 08:30N 52°25' E 004°46'0 0.0
2014-Nov-23 07:32N 52°25' E 004°46'0 0.0
2014-Nov-23 06:32N 52°25' E 004°46'0 0.0
2014-Nov-23 05:31N 52°25' E 004°46'0 0.0
2014-Nov-23 04:33N 52°25' E 004°46'0 0.0
2014-Nov-23 03:33N 52°25' E 004°46'0 0.0
2014-Nov-23 02:32N 52°25' E 004°46'0 0.0
2014-Nov-23 01:31N 52°25' E 004°46'0 0.0
2014-Nov-23 00:31N 52°25' E 004°46'0 0.0
2014-Nov-22 23:33N 52°25' E 004°46'0 0.0
2014-Nov-22 22:32N 52°25' E 004°46'0 0.0
2014-Nov-22 21:32N 52°25' E 004°46'0 0.0
2014-Nov-22 20:31N 52°25' E 004°46'0 0.0
2014-Nov-22 19:31N 52°25' E 004°46'0 0.0
2014-Nov-22 18:33N 52°25' E 004°46'0 0.0
2014-Nov-22 17:32N 52°25' E 004°46'0 0.0
2014-Nov-22 16:32N 52°25' E 004°46'0 0.0
2014-Nov-22 15:31N 52°25' E 004°46'0 0.0
2014-Nov-22 14:30N 52°25' E 004°46'0 0.0
2014-Nov-22 13:33N 52°25' E 004°46'0 0.0
2014-Nov-22 12:32N 52°25' E 004°46'0 0.0
2014-Nov-22 11:31N 52°25' E 004°46'0 0.0
2014-Nov-22 10:31N 52°25' E 004°46'3 2.9
2014-Nov-22 09:33N 52°26' E 004°43'5 4.9
2014-Nov-22 08:34N 52°28' E 004°35'8 7.8
2014-Nov-22 07:33N 52°28' E 004°22'8 7.8
2014-Nov-22 06:33N 52°29' E 004°10'8 7.7
2014-Nov-22 05:30N 52°27' E 003°57'8 7.5
2014-Nov-22 04:27N 52°23' E 003°46'7 7.7
2014-Nov-22 03:30N 52°21' E 003°34'61 8.7
2014-Nov-21 20:26N 51°52' E 002°06'6 7.2
2014-Nov-21 19:33N 51°50' E 001°57'8 7.5
2014-Nov-21 18:33N 51°48' E 001°45'9 8.5
2014-Nov-21 17:33N 51°47' E 001°31'10 9.8
2014-Nov-21 16:33N 51°41' E 001°19'1110.9
2014-Nov-21 15:33N 51°34' E 001°07'1111.1
2014-Nov-21 14:33N 51°29' E 000°50'1211.9
2014-Nov-21 13:33N 51°30' E 000°31'8 8.3
2014-Nov-21 12:34N 51°28' E 000°18'0 0.4
2014-Nov-21 11:34N 51°28' E 000°17'0 0.0
2014-Nov-21 10:34N 51°28' E 000°17'0 0.0
2014-Nov-21 09:34N 51°28' E 000°17'0 0.0
2014-Nov-21 08:33N 51°28' E 000°17'0 0.0
2014-Nov-21 07:34N 51°28' E 000°17'0 0.0
2014-Nov-21 06:34N 51°28' E 000°17'0 0.0
2014-Nov-21 05:33N 51°28' E 000°17'0 0.0
2014-Nov-21 04:34N 51°28' E 000°17'0 0.0
2014-Nov-21 03:33N 51°28' E 000°17'0 0.0
2014-Nov-21 02:33N 51°28' E 000°17'0 0.0
2014-Nov-21 01:34N 51°28' E 000°17'0 0.0
2014-Nov-21 00:34N 51°28' E 000°17'0 0.0
2014-Nov-20 23:34N 51°28' E 000°17'0 0.0
2014-Nov-20 22:34N 51°28' E 000°17'0 0.0
2014-Nov-20 21:33N 51°28' E 000°17'0 0.0
2014-Nov-20 20:34N 51°28' E 000°17'0 0.0
2014-Nov-20 19:34N 51°28' E 000°17'0 0.0
2014-Nov-20 18:34N 51°28' E 000°17'0 0.0
2014-Nov-20 17:34N 51°28' E 000°17'0 0.0
2014-Nov-20 16:33N 51°28' E 000°17'0 0.0
2014-Nov-20 15:34N 51°28' E 000°17'0 0.0
2014-Nov-20 14:34N 51°28' E 000°17'0 0.0
2014-Nov-20 13:33N 51°28' E 000°17'0 0.0
2014-Nov-20 12:33N 51°28' E 000°17'0 0.0
2014-Nov-20 11:33N 51°28' E 000°17'0 0.0
2014-Nov-20 10:33N 51°28' E 000°17'0 0.0
2014-Nov-20 09:33N 51°28' E 000°17'0 0.0
2014-Nov-20 08:33N 51°28' E 000°17'0 0.0
2014-Nov-20 07:34N 51°28' E 000°17'0 0.0
2014-Nov-20 06:33N 51°28' E 000°17'0 0.0
2014-Nov-20 05:33N 51°28' E 000°17'0 0.0
2014-Nov-20 04:34N 51°28' E 000°17'0 0.0
2014-Nov-20 03:34N 51°28' E 000°17'0 0.0
2014-Nov-20 02:34N 51°28' E 000°17'0 0.0
2014-Nov-20 01:34N 51°28' E 000°17'0 0.0
2014-Nov-20 00:34N 51°28' E 000°17'0 0.0
2014-Nov-19 23:33N 51°28' E 000°17'0 0.0
2014-Nov-19 22:33N 51°28' E 000°17'0 0.0
2014-Nov-19 21:34N 51°28' E 000°17'0 0.0
2014-Nov-19 20:33N 51°28' E 000°17'0 0.0
2014-Nov-19 19:34N 51°28' E 000°17'0 0.0
2014-Nov-19 18:34N 51°28' E 000°17'0 0.0
2014-Nov-19 17:34N 51°28' E 000°17'0 0.0
2014-Nov-19 16:34N 51°28' E 000°17'0 0.0
2014-Nov-19 15:34N 51°28' E 000°17'0 0.0
2014-Nov-19 14:34N 51°28' E 000°17'0 0.0
2014-Nov-19 13:34N 51°28' E 000°17'0 0.0
2014-Nov-19 12:34N 51°28' E 000°17'0 0.0
2014-Nov-19 11:34N 51°28' E 000°17'0 0.0
2014-Nov-19 10:34N 51°28' E 000°17'0 0.0
2014-Nov-19 09:33N 51°28' E 000°17'0 0.0
2014-Nov-19 08:33N 51°28' E 000°17'0 0.0
2014-Nov-19 07:33N 51°28' E 000°17'0 0.0
2014-Nov-19 06:34N 51°28' E 000°17'0 0.0
2014-Nov-19 05:33N 51°28' E 000°17'0 0.0
2014-Nov-19 04:33N 51°28' E 000°17'0 0.0
2014-Nov-19 03:34N 51°28' E 000°17'0 0.0
2014-Nov-19 02:34N 51°28' E 000°17'0 0.0
2014-Nov-19 01:34N 51°28' E 000°17'0 0.0
2014-Nov-19 00:34N 51°28' E 000°17'0 0.0
2014-Nov-18 23:34N 51°28' E 000°17'0 0.0
2014-Nov-18 22:33N 51°28' E 000°17'0 0.0
2014-Nov-18 21:33N 51°28' E 000°17'0 0.0
2014-Nov-18 20:34N 51°28' E 000°17'0 0.0
2014-Nov-18 19:34N 51°28' E 000°17'0 0.0
2014-Nov-18 18:34N 51°28' E 000°17'0 0.0
2014-Nov-18 17:33N 51°28' E 000°17'1 1.0
2014-Nov-18 16:34N 51°28' E 000°19'7 7.4
2014-Nov-18 15:33N 51°30' E 000°31'9 9.3
2014-Nov-18 14:33N 51°30' E 000°45'8 8.2
2014-Nov-18 13:34N 51°29' E 000°59'6 6.3
2014-Nov-18 12:33N 51°29' E 001°09'6 6.2
2014-Nov-18 11:34N 51°29' E 001°19'7 6.6
2014-Nov-18 10:33N 51°29' E 001°29'7 7.0
2014-Nov-18 09:33N 51°29' E 001°40'9 9.2
2014-Nov-18 08:33N 51°29' E 001°55'8 8.4
2014-Nov-18 07:34N 51°21' E 001°60'9 9.2
2014-Nov-18 06:34N 51°14' E 001°51'8 8.0
2014-Nov-18 05:33N 51°08' E 001°43'7 6.9
2014-Nov-18 04:33N 51°03' E 001°36'  
Track history (hours):
 
Tides and Currents Weather Stations Pressure Air Temp Water Temp Dewpoint Dewpoint Depression Visibility Wind Speed Wind Dir Waves Ship Positions

Plato

Last reported at 2014-Nov-26 22:31 UTC. Time now 2014-Nov-27 04:26 UTC.
Position N 50°28' W 002°55'.

Length 88 m; draft 3.4 m.

Type: Ship. MMSI: 314189000.

Date/timePositionNaut miles runAvg speedWind from/ knotsBaromVisibWave heightAir tempDewpointWater temp
2014-Nov-26 22:31N 50°28' W 002°55'1111.2
2014-Nov-26 21:33N 50°30' W 003°12'1110.5
2014-Nov-26 20:33N 50°32' W 003°28'1 0.1
2014-Nov-25 20:31N 50°33' W 003°30'2 1.7
2014-Nov-25 19:33N 50°32' W 003°28'0 0.0
2014-Nov-25 18:33N 50°32' W 003°28'2 1.7
2014-Nov-25 17:33N 50°31' W 003°26'10 9.8
2014-Nov-25 16:33N 50°30' W 003°10'9 8.7
2014-Nov-25 15:33N 50°29' W 002°57'28 9.2
2014-Nov-25 12:31N 50°26' W 002°13'96 9.4
2014-Nov-25 02:16N 50°35' E 000°17'811.2
2014-Nov-25 01:33N 50°37' E 000°29'1010.2
2014-Nov-25 00:33N 50°42' E 000°42'10 9.9
2014-Nov-24 23:33N 50°48' E 000°55'2210.8
2014-Nov-24 21:34N 51°02' E 001°22'1414.1
2014-Nov-24 20:34N 51°10' E 001°39'1313.0
2014-Nov-24 19:34N 51°21' E 001°52'1211.7
2014-Nov-24 18:32N 51°30' E 002°04'95 9.3
2014-Nov-24 08:17N 52°31' E 004°03'6 7.7
2014-Nov-24 07:31N 52°31' E 004°12'7 7.6
2014-Nov-24 06:33N 52°29' E 004°24'7 7.2
2014-Nov-24 05:33N 52°28' E 004°36'6 5.5
2014-Nov-24 04:34N 52°26' E 004°44'2 1.9
2014-Nov-24 03:33N 52°25' E 004°46'0 0.0
2014-Nov-24 02:32N 52°25' E 004°46'0 0.0
2014-Nov-24 01:32N 52°25' E 004°46'0 0.0
2014-Nov-24 00:31N 52°25' E 004°46'0 0.0
2014-Nov-23 23:33N 52°25' E 004°46'0 0.0
2014-Nov-23 22:33N 52°25' E 004°46'0 0.0
2014-Nov-23 21:32N 52°25' E 004°46'0 0.0
2014-Nov-23 20:31N 52°25' E 004°46'0 0.0
2014-Nov-23 19:31N 52°25' E 004°46'0 0.0
2014-Nov-23 18:33N 52°25' E 004°46'0 0.0
2014-Nov-23 17:33N 52°25' E 004°46'0 0.0
2014-Nov-23 16:32N 52°25' E 004°46'0 0.0
2014-Nov-23 15:31N 52°25' E 004°46'0 0.0
2014-Nov-23 14:31N 52°25' E 004°46'0 0.0
2014-Nov-23 13:33N 52°25' E 004°46'0 0.0
2014-Nov-23 12:32N 52°25' E 004°46'0 0.0
2014-Nov-23 11:32N 52°25' E 004°46'0 0.0
2014-Nov-23 10:31N 52°25' E 004°46'0 0.0
2014-Nov-23 09:33N 52°25' E 004°46'0 0.0
2014-Nov-23 08:30N 52°25' E 004°46'0 0.0
2014-Nov-23 07:32N 52°25' E 004°46'0 0.0
2014-Nov-23 06:32N 52°25' E 004°46'0 0.0
2014-Nov-23 05:31N 52°25' E 004°46'0 0.0
2014-Nov-23 04:33N 52°25' E 004°46'0 0.0
2014-Nov-23 03:33N 52°25' E 004°46'0 0.0
2014-Nov-23 02:32N 52°25' E 004°46'0 0.0
2014-Nov-23 01:31N 52°25' E 004°46'0 0.0
2014-Nov-23 00:31N 52°25' E 004°46'0 0.0
2014-Nov-22 23:33N 52°25' E 004°46'0 0.0
2014-Nov-22 22:32N 52°25' E 004°46'0 0.0
2014-Nov-22 21:32N 52°25' E 004°46'0 0.0
2014-Nov-22 20:31N 52°25' E 004°46'0 0.0
2014-Nov-22 19:31N 52°25' E 004°46'0 0.0
2014-Nov-22 18:33N 52°25' E 004°46'0 0.0
2014-Nov-22 17:32N 52°25' E 004°46'0 0.0
2014-Nov-22 16:32N 52°25' E 004°46'0 0.0
2014-Nov-22 15:31N 52°25' E 004°46'0 0.0
2014-Nov-22 14:30N 52°25' E 004°46'0 0.0
2014-Nov-22 13:33N 52°25' E 004°46'0 0.0
2014-Nov-22 12:32N 52°25' E 004°46'0 0.0
2014-Nov-22 11:31N 52°25' E 004°46'0 0.0
2014-Nov-22 10:31N 52°25' E 004°46'3 2.9
2014-Nov-22 09:33N 52°26' E 004°43'5 4.9
2014-Nov-22 08:34N 52°28' E 004°35'8 7.8
2014-Nov-22 07:33N 52°28' E 004°22'8 7.8
2014-Nov-22 06:33N 52°29' E 004°10'8 7.7
2014-Nov-22 05:30N 52°27' E 003°57'8 7.5
2014-Nov-22 04:27N 52°23' E 003°46'7 7.7
2014-Nov-22 03:30N 52°21' E 003°34'61 8.7
2014-Nov-21 20:26N 51°52' E 002°06'6 7.2
2014-Nov-21 19:33N 51°50' E 001°57'8 7.5
2014-Nov-21 18:33N 51°48' E 001°45'9 8.5
2014-Nov-21 17:33N 51°47' E 001°31'10 9.8
2014-Nov-21 16:33N 51°41' E 001°19'1110.9
2014-Nov-21 15:33N 51°34' E 001°07'1111.1
2014-Nov-21 14:33N 51°29' E 000°50'1211.9
2014-Nov-21 13:33N 51°30' E 000°31'8 8.3
2014-Nov-21 12:34N 51°28' E 000°18'0 0.4
2014-Nov-21 11:34N 51°28' E 000°17'0 0.0
2014-Nov-21 10:34N 51°28' E 000°17'0 0.0
2014-Nov-21 09:34N 51°28' E 000°17'0 0.0
2014-Nov-21 08:33N 51°28' E 000°17'0 0.0
2014-Nov-21 07:34N 51°28' E 000°17'0 0.0
2014-Nov-21 06:34N 51°28' E 000°17'0 0.0
2014-Nov-21 05:33N 51°28' E 000°17'0 0.0
2014-Nov-21 04:34N 51°28' E 000°17'0 0.0
2014-Nov-21 03:33N 51°28' E 000°17'0 0.0
2014-Nov-21 02:33N 51°28' E 000°17'0 0.0
2014-Nov-21 01:34N 51°28' E 000°17'0 0.0
2014-Nov-21 00:34N 51°28' E 000°17'0 0.0
2014-Nov-20 23:34N 51°28' E 000°17'0 0.0
2014-Nov-20 22:34N 51°28' E 000°17'0 0.0
2014-Nov-20 21:33N 51°28' E 000°17'0 0.0
2014-Nov-20 20:34N 51°28' E 000°17'0 0.0
2014-Nov-20 19:34N 51°28' E 000°17'0 0.0
2014-Nov-20 18:34N 51°28' E 000°17'0 0.0
2014-Nov-20 17:34N 51°28' E 000°17'0 0.0
2014-Nov-20 16:33N 51°28' E 000°17'0 0.0
2014-Nov-20 15:34N 51°28' E 000°17'0 0.0
2014-Nov-20 14:34N 51°28' E 000°17'0 0.0
2014-Nov-20 13:33N 51°28' E 000°17'0 0.0
2014-Nov-20 12:33N 51°28' E 000°17'0 0.0
2014-Nov-20 11:33N 51°28' E 000°17'0 0.0
2014-Nov-20 10:33N 51°28' E 000°17'0 0.0
2014-Nov-20 09:33N 51°28' E 000°17'0 0.0
2014-Nov-20 08:33N 51°28' E 000°17'0 0.0
2014-Nov-20 07:34N 51°28' E 000°17'0 0.0
2014-Nov-20 06:33N 51°28' E 000°17'0 0.0
2014-Nov-20 05:33N 51°28' E 000°17'0 0.0
2014-Nov-20 04:34N 51°28' E 000°17'0 0.0
2014-Nov-20 03:34N 51°28' E 000°17'0 0.0
2014-Nov-20 02:34N 51°28' E 000°17'0 0.0
2014-Nov-20 01:34N 51°28' E 000°17'0 0.0
2014-Nov-20 00:34N 51°28' E 000°17'0 0.0
2014-Nov-19 23:33N 51°28' E 000°17'0 0.0
2014-Nov-19 22:33N 51°28' E 000°17'0 0.0
2014-Nov-19 21:34N 51°28' E 000°17'0 0.0
2014-Nov-19 20:33N 51°28' E 000°17'0 0.0
2014-Nov-19 19:34N 51°28' E 000°17'0 0.0
2014-Nov-19 18:34N 51°28' E 000°17'0 0.0
2014-Nov-19 17:34N 51°28' E 000°17'0 0.0
2014-Nov-19 16:34N 51°28' E 000°17'0 0.0
2014-Nov-19 15:34N 51°28' E 000°17'0 0.0
2014-Nov-19 14:34N 51°28' E 000°17'0 0.0
2014-Nov-19 13:34N 51°28' E 000°17'0 0.0
2014-Nov-19 12:34N 51°28' E 000°17'0 0.0
2014-Nov-19 11:34N 51°28' E 000°17'0 0.0
2014-Nov-19 10:34N 51°28' E 000°17'0 0.0
2014-Nov-19 09:33N 51°28' E 000°17'0 0.0
2014-Nov-19 08:33N 51°28' E 000°17'0 0.0
2014-Nov-19 07:33N 51°28' E 000°17'0 0.0
2014-Nov-19 06:34N 51°28' E 000°17'0 0.0
2014-Nov-19 05:33N 51°28' E 000°17'0 0.0
2014-Nov-19 04:33N 51°28' E 000°17'0 0.0
2014-Nov-19 03:34N 51°28' E 000°17'0 0.0
2014-Nov-19 02:34N 51°28' E 000°17'0 0.0
2014-Nov-19 01:34N 51°28' E 000°17'0 0.0
2014-Nov-19 00:34N 51°28' E 000°17'0 0.0
2014-Nov-18 23:34N 51°28' E 000°17'0 0.0
2014-Nov-18 22:33N 51°28' E 000°17'0 0.0
2014-Nov-18 21:33N 51°28' E 000°17'0 0.0
2014-Nov-18 20:34N 51°28' E 000°17'0 0.0
2014-Nov-18 19:34N 51°28' E 000°17'0 0.0
2014-Nov-18 18:34N 51°28' E 000°17'0 0.0
2014-Nov-18 17:33N 51°28' E 000°17'1 1.0
2014-Nov-18 16:34N 51°28' E 000°19'7 7.4
2014-Nov-18 15:33N 51°30' E 000°31'9 9.3
2014-Nov-18 14:33N 51°30' E 000°45'8 8.2
2014-Nov-18 13:34N 51°29' E 000°59'6 6.3
2014-Nov-18 12:33N 51°29' E 001°09'6 6.2
2014-Nov-18 11:34N 51°29' E 001°19'7 6.6
2014-Nov-18 10:33N 51°29' E 001°29'7 7.0
2014-Nov-18 09:33N 51°29' E 001°40'9 9.2
2014-Nov-18 08:33N 51°29' E 001°55'8 8.4
2014-Nov-18 07:34N 51°21' E 001°60'9 9.2
2014-Nov-18 06:34N 51°14' E 001°51'8 8.0
2014-Nov-18 05:33N 51°08' E 001°43'7 6.9
2014-Nov-18 04:33N 51°03' E 001°36'  

Dump ship's entire track history